createdAt,value
2022-12-19T00:00:34.657Z,104.07
2022-12-19T00:03:02.751Z,112.83
2022-12-19T00:05:30.815Z,105.07
2022-12-19T00:07:58.982Z,101.50
2022-12-19T00:10:30.336Z,98.60
2022-12-19T00:12:59.586Z,100.00
2022-12-19T00:15:27.561Z,95.73
2022-12-19T00:17:55.441Z,119.37
2022-12-19T00:20:23.323Z,109.30
2022-12-19T00:22:51.235Z,116.20
2022-12-19T00:25:19.204Z,113.47
2022-12-19T00:27:47.109Z,104.80
2022-12-19T00:30:16.818Z,113.67
2022-12-19T00:32:44.884Z,123.57
2022-12-19T00:35:12.798Z,106.53
2022-12-19T00:37:41.500Z,107.37
2022-12-19T00:40:17.224Z,108.03
2022-12-19T00:42:50.117Z,118.87
2022-12-19T00:45:23.200Z,100.80
2022-12-19T00:47:51.127Z,102.13
2022-12-19T00:50:19.291Z,110.03
2022-12-19T00:52:47.222Z,113.03
2022-12-19T00:55:19.047Z,124.67
2022-12-19T00:57:47.973Z,110.00
2022-12-19T01:00:17.363Z,117.87
2022-12-19T01:02:46.930Z,113.53
2022-12-19T01:05:15.084Z,113.13
2022-12-19T01:07:43.056Z,104.33
2022-12-19T01:10:11.326Z,119.57
2022-12-19T01:12:47.101Z,111.20
2022-12-19T01:15:16.591Z,107.23
2022-12-19T01:17:46.013Z,118.87
2022-12-19T01:20:15.186Z,112.13
2022-12-19T01:22:43.168Z,110.80
2022-12-19T01:25:11.094Z,108.97
2022-12-19T01:27:39.061Z,105.43
2022-12-19T01:30:08.986Z,117.20
2022-12-19T01:32:37.634Z,126.47
2022-12-19T01:35:18.819Z,109.47
2022-12-19T01:37:50.091Z,105.87
2022-12-19T01:40:18.047Z,104.00
2022-12-19T01:42:45.982Z,130.97
2022-12-19T01:45:33.160Z,116.00
2022-12-19T01:48:15.304Z,106.93
2022-12-19T01:51:00.687Z,105.37
2022-12-19T01:53:32.891Z,123.20
2022-12-19T01:56:08.825Z,108.60
2022-12-19T01:58:37.607Z,101.63
2022-12-19T02:01:05.841Z,98.40
2022-12-19T02:03:36.730Z,101.90
2022-12-19T02:06:08.117Z,114.73
2022-12-19T02:08:37.320Z,102.97
2022-12-19T02:11:05.302Z,117.50
2022-12-19T02:13:33.500Z,110.63
2022-12-19T02:16:07.549Z,121.17
2022-12-19T02:18:44.969Z,113.93
2022-12-19T02:21:34.026Z,116.27
2022-12-19T02:24:38.579Z,128.17
2022-12-19T02:27:52.566Z,109.20
2022-12-19T02:30:38.350Z,99.83
2022-12-19T02:33:16.984Z,99.00
2022-12-19T02:35:48.768Z,114.20
2022-12-19T02:38:22.559Z,100.63
2022-12-19T02:40:55.596Z,110.87
2022-12-19T02:43:25.123Z,103.43
2022-12-19T02:45:55.959Z,93.17
2022-12-19T02:48:24.439Z,99.70
2022-12-19T02:50:52.360Z,117.00
2022-12-19T02:53:23.591Z,115.40
2022-12-19T02:56:10.622Z,104.47
2022-12-19T02:58:59.354Z,102.50
2022-12-19T03:01:39.424Z,110.37
2022-12-19T03:04:17.093Z,106.13
2022-12-19T03:06:50.885Z,108.83
2022-12-19T03:09:27.583Z,113.40
2022-12-19T03:12:03.176Z,117.23
2022-12-19T03:14:32.444Z,103.20
2022-12-19T03:17:06.375Z,106.27
2022-12-19T03:19:35.855Z,108.13
2022-12-19T03:22:03.767Z,100.93
2022-12-19T03:24:31.903Z,98.27
2022-12-19T03:27:04.290Z,112.17
2022-12-19T03:29:36.879Z,108.83
2022-12-19T03:32:10.687Z,120.77
2022-12-19T03:34:42.557Z,111.07
2022-12-19T03:37:15.755Z,112.50
2022-12-19T03:39:47.458Z,101.83
2022-12-19T03:42:49.619Z,106.57
2022-12-19T03:45:25.277Z,113.20
2022-12-19T03:47:58.301Z,96.17
2022-12-19T03:50:31.645Z,95.17
2022-12-19T03:53:11.918Z,107.63
2022-12-19T03:55:43.658Z,102.60
2022-12-19T03:58:15.260Z,119.67
2022-12-19T04:00:47.288Z,99.73
2022-12-19T04:03:18.180Z,106.83
2022-12-19T04:05:48.522Z,110.00
2022-12-19T04:08:17.660Z,99.37
2022-12-19T04:10:50.422Z,121.77
2022-12-19T04:13:24.133Z,106.97
2022-12-19T04:15:56.971Z,112.13
2022-12-19T04:18:27.188Z,115.70
2022-12-19T04:21:03.055Z,110.10
2022-12-19T04:23:34.404Z,110.53
2022-12-19T04:26:05.511Z,96.40
2022-12-19T04:28:38.601Z,116.90
2022-12-19T04:31:07.913Z,110.73
2022-12-19T04:33:37.226Z,116.03
2022-12-19T04:36:05.439Z,112.23
2022-12-19T04:38:33.702Z,110.07
2022-12-19T04:41:01.643Z,117.00
2022-12-19T04:43:29.533Z,97.80
2022-12-19T04:45:57.947Z,94.47
2022-12-19T04:48:26.048Z,120.07
2022-12-19T04:50:56.049Z,91.73
2022-12-19T04:53:24.144Z,104.17
2022-12-19T04:55:52.118Z,106.43
2022-12-19T04:58:21.996Z,99.73
2022-12-19T05:00:50.308Z,101.00
2022-12-19T05:03:18.296Z,97.93
2022-12-19T05:05:46.247Z,101.27
2022-12-19T05:08:15.730Z,100.80
2022-12-19T05:10:43.654Z,87.10
2022-12-19T05:13:12.181Z,96.93
2022-12-19T05:15:40.127Z,95.33
2022-12-19T05:18:08.200Z,106.63
2022-12-19T05:20:37.973Z,104.00
2022-12-19T05:23:13.343Z,96.50
2022-12-19T05:25:45.673Z,91.77
2022-12-19T05:28:13.747Z,90.07
2022-12-19T05:30:41.742Z,106.13
2022-12-19T05:33:09.862Z,91.70
2022-12-19T05:35:38.135Z,91.63
2022-12-19T05:38:06.197Z,88.83
2022-12-19T05:40:34.653Z,101.00
2022-12-19T05:43:04.037Z,96.50
2022-12-19T05:45:31.932Z,89.83
2022-12-19T05:48:01.436Z,100.70
2022-12-19T05:50:29.668Z,92.00
2022-12-19T05:52:57.591Z,90.17
2022-12-19T05:55:25.544Z,91.30
2022-12-19T05:57:53.511Z,81.20
2022-12-19T06:00:22.990Z,83.30
2022-12-19T06:02:50.969Z,98.20
2022-12-19T06:05:19.021Z,87.60
2022-12-19T06:07:46.943Z,85.40
2022-12-19T06:10:14.875Z,86.30
2022-12-19T06:12:42.803Z,82.03
2022-12-19T06:15:11.731Z,80.47
2022-12-19T06:17:41.001Z,85.30
2022-12-19T06:20:09.866Z,74.20
2022-12-19T06:22:37.827Z,90.33
2022-12-19T06:25:06.536Z,78.77
2022-12-19T06:27:34.865Z,75.17
2022-12-19T06:30:02.743Z,84.23
2022-12-19T06:32:34.809Z,61.47
2022-12-19T06:35:08.580Z,66.23
2022-12-19T06:37:39.332Z,72.37
2022-12-19T06:40:29.058Z,65.47
2022-12-19T06:42:56.019Z,68.40
2022-12-19T06:45:23.938Z,57.10
2022-12-19T06:47:51.883Z,55.47
2022-12-19T06:50:21.187Z,64.50
2022-12-19T06:52:49.307Z,57.07
2022-12-19T06:55:17.542Z,58.73
2022-12-19T06:57:46.434Z,60.40
2022-12-19T07:00:15.307Z,60.67
2022-12-19T07:02:45.931Z,57.07
2022-12-19T07:05:14.560Z,58.37
2022-12-19T07:07:44.912Z,56.90
2022-12-19T07:10:13.059Z,58.20
2022-12-19T07:12:41.056Z,63.03
2022-12-19T07:15:09.668Z,61.13
2022-12-19T07:17:37.872Z,90.93
2022-12-19T07:20:06.799Z,59.60
2022-12-19T07:22:36.352Z,63.20
2022-12-19T07:25:07.018Z,59.40
2022-12-19T07:27:36.179Z,62.50
2022-12-19T07:30:05.617Z,59.23
2022-12-19T07:32:33.579Z,62.53
2022-12-19T07:35:02.599Z,63.70
2022-12-19T07:37:30.535Z,63.60
2022-12-19T07:39:58.460Z,54.63
2022-12-19T07:42:32.239Z,64.73
2022-12-19T07:45:01.328Z,54.30
2022-12-19T07:47:29.279Z,58.10
2022-12-19T07:49:57.218Z,54.57
2022-12-19T07:52:25.231Z,58.03
2022-12-19T07:54:53.149Z,68.27
2022-12-19T07:57:21.275Z,62.23
2022-12-19T07:59:50.664Z,62.23
2022-12-19T08:02:19.009Z,57.97
2022-12-19T08:04:47.131Z,73.43
2022-12-19T08:07:15.715Z,55.40
2022-12-19T08:09:43.690Z,59.87
2022-12-19T08:12:11.620Z,69.63
2022-12-19T08:14:39.522Z,61.07
2022-12-19T08:17:20.725Z,63.07
2022-12-19T08:19:49.396Z,58.40
2022-12-19T08:22:17.347Z,65.23
2022-12-19T08:24:45.384Z,54.90
2022-12-19T08:27:13.412Z,69.90
2022-12-19T08:29:41.339Z,69.20
2022-12-19T08:32:14.352Z,63.30
2022-12-19T08:34:45.119Z,66.33
2022-12-19T08:37:13.347Z,68.47
2022-12-19T08:39:41.290Z,61.17
2022-12-19T08:42:09.208Z,64.57
2022-12-19T08:44:37.195Z,61.03
2022-12-19T08:47:06.628Z,67.33
2022-12-19T08:49:35.928Z,71.10
2022-12-19T08:52:03.933Z,71.77
2022-12-19T08:54:31.912Z,60.50
2022-12-19T08:56:59.822Z,90.97
2022-12-19T08:59:31.487Z,70.83
2022-12-19T09:02:01.172Z,71.37
2022-12-19T09:05:59.259Z,69.83
2022-12-19T09:07:19.014Z,72.97
2022-12-19T09:09:46.946Z,87.67
2022-12-19T09:12:15.970Z,72.63
2022-12-19T09:14:45.118Z,67.33
2022-12-19T09:17:13.251Z,60.20
2022-12-19T09:19:41.565Z,69.10
2022-12-19T09:22:15.108Z,63.37
2022-12-19T09:24:44.503Z,62.90
2022-12-19T09:27:12.417Z,77.70
2022-12-19T09:29:42.459Z,76.53
2022-12-19T09:32:10.503Z,58.77
2022-12-19T09:34:39.143Z,65.80
2022-12-19T09:37:08.667Z,72.20
2022-12-19T09:39:37.039Z,63.63
2022-12-19T09:42:31.953Z,69.67
2022-12-19T09:45:32.854Z,67.40
2022-12-19T09:48:02.601Z,72.30
2022-12-19T09:50:48.965Z,75.47
2022-12-19T09:53:24.305Z,72.37
2022-12-19T09:55:54.660Z,69.80
2022-12-19T09:58:34.013Z,67.37
2022-12-19T10:01:07.424Z,71.03
2022-12-19T10:03:40.401Z,79.67
2022-12-19T10:07:01.388Z,68.83
2022-12-19T10:10:36.281Z,71.13
2022-12-19T10:12:47.609Z,74.90
2022-12-19T10:15:26.881Z,78.23
2022-12-19T10:18:16.671Z,71.57
2022-12-19T10:20:51.127Z,72.53
2022-12-19T10:23:41.235Z,67.10
2022-12-19T10:26:19.334Z,77.60
2022-12-19T10:29:01.162Z,68.43
2022-12-19T10:31:37.793Z,63.53
2022-12-19T10:34:18.658Z,64.47
2022-12-19T10:37:23.053Z,67.00
2022-12-19T10:39:49.038Z,61.00
2022-12-19T10:42:28.057Z,66.17
2022-12-19T10:44:57.825Z,68.77
2022-12-19T10:47:27.296Z,63.10
2022-12-19T10:49:55.222Z,66.47
2022-12-19T10:52:48.925Z,66.50
2022-12-19T10:55:38.308Z,72.53
2022-12-19T10:58:18.270Z,66.67
2022-12-19T11:01:06.168Z,67.93
2022-12-19T11:03:36.458Z,67.50
2022-12-19T11:06:05.882Z,76.43
2022-12-19T11:08:35.780Z,72.60
2022-12-19T11:13:04.133Z,66.03
2022-12-19T11:19:48.955Z,56.00
2022-12-19T11:27:11.673Z,53.00
2022-12-19T11:29:26.636Z,71.97
2022-12-19T11:29:31.733Z,60.97
2022-12-19T11:30:41.128Z,56.47
2022-12-19T11:30:44.327Z,71.63
2022-12-19T11:34:32.483Z,58.53
2022-12-19T11:37:14.204Z,62.90
2022-12-19T11:39:46.363Z,61.60
2022-12-19T11:42:22.311Z,57.07
2022-12-19T11:44:57.295Z,78.50
2022-12-19T11:47:36.694Z,80.60
2022-12-19T11:50:15.278Z,64.30
2022-12-19T11:53:14.691Z,62.60
2022-12-19T11:55:45.068Z,56.07
2022-12-19T11:58:13.962Z,64.13
2022-12-19T12:00:50.687Z,59.13
2022-12-19T12:03:55.925Z,53.80
2022-12-19T12:06:34.823Z,61.80
2022-12-19T12:12:28.405Z,54.27
2022-12-19T12:18:19.578Z,58.77
2022-12-19T12:30:22.056Z,57.73
2022-12-19T12:30:59.923Z,57.20
2022-12-19T12:31:13.771Z,58.60
2022-12-19T12:31:48.870Z,66.53
2022-12-19T12:32:00.361Z,58.17
2022-12-19T12:32:04.349Z,66.07
2022-12-19T12:35:46.560Z,62.87
2022-12-19T12:39:24.238Z,66.13
2022-12-19T12:42:09.042Z,66.83
2022-12-19T12:44:45.214Z,59.27
2022-12-19T12:47:18.533Z,69.83
2022-12-19T12:49:51.317Z,63.33
2022-12-19T12:52:22.839Z,60.63
2022-12-19T12:54:52.841Z,63.73
2022-12-19T12:57:36.147Z,67.50
2022-12-19T13:00:19.519Z,76.40
2022-12-19T13:02:51.481Z,79.80
2022-12-19T13:05:42.069Z,75.30
2022-12-19T13:08:32.174Z,68.80
2022-12-19T13:11:04.621Z,75.93
2022-12-19T13:13:53.952Z,68.20
2022-12-19T13:16:52.873Z,77.37
2022-12-19T13:19:28.344Z,70.03
2022-12-19T13:22:19.159Z,79.03
2022-12-19T13:24:50.004Z,73.37
2022-12-19T13:27:38.301Z,68.93
2022-12-19T13:30:19.156Z,71.80
2022-12-19T13:33:09.248Z,76.90
2022-12-19T13:37:09.835Z,66.87
2022-12-19T13:40:01.454Z,73.80
2022-12-19T13:41:45.419Z,105.63
2022-12-19T13:44:15.222Z,108.73
2022-12-19T13:46:45.482Z,79.50
2022-12-19T13:49:18.454Z,67.67
2022-12-19T13:51:52.934Z,86.43
2022-12-19T13:54:24.761Z,60.33
2022-12-19T13:56:54.122Z,72.20
2022-12-19T13:59:26.795Z,70.80
2022-12-19T14:01:56.260Z,69.23
2022-12-19T14:04:29.193Z,62.40
2022-12-19T14:07:00.570Z,73.73
2022-12-19T14:11:25.491Z,78.20
2022-12-19T14:13:57.431Z,75.27
2022-12-19T14:15:35.952Z,76.13
2022-12-19T14:18:44.286Z,74.33
2022-12-19T14:22:11.469Z,72.53
2022-12-19T14:24:18.333Z,79.13
2022-12-19T14:28:26.077Z,72.17
2022-12-19T14:30:28.171Z,74.47
2022-12-19T14:33:40.779Z,78.30
2022-12-19T14:36:06.874Z,76.17
2022-12-19T14:39:20.495Z,86.27
2022-12-19T14:41:27.513Z,76.87
2022-12-19T14:52:34.939Z,78.97
2022-12-19T14:54:14.514Z,74.57
2022-12-19T14:54:16.317Z,75.23
2022-12-19T14:54:35.849Z,79.60
2022-12-19T14:56:16.204Z,83.53
2022-12-19T14:58:54.941Z,77.57
2022-12-19T15:01:24.799Z,74.10
2022-12-19T15:04:48.236Z,87.10
2022-12-19T15:07:09.517Z,76.40
2022-12-19T15:11:03.773Z,71.67
2022-12-19T15:14:46.651Z,71.83
2022-12-19T15:15:58.791Z,95.60
2022-12-19T15:18:29.290Z,81.40
2022-12-19T15:20:59.097Z,86.27
2022-12-19T15:23:29.226Z,83.50
2022-12-19T15:26:04.080Z,82.50
2022-12-19T15:28:40.155Z,72.57
2022-12-19T15:31:14.628Z,88.90
2022-12-19T15:34:06.683Z,98.90
2022-12-19T15:36:30.992Z,89.10
2022-12-19T15:39:01.009Z,82.53
2022-12-19T15:41:29.040Z,78.73
2022-12-19T15:44:06.126Z,89.57
2022-12-19T15:46:34.630Z,76.87
2022-12-19T15:49:02.879Z,73.00
2022-12-19T15:51:30.826Z,80.43
2022-12-19T15:54:38.347Z,77.53
2022-12-19T15:56:53.631Z,79.43
2022-12-19T15:59:31.362Z,76.03
2022-12-19T16:02:04.210Z,77.47
2022-12-19T16:04:32.375Z,75.67
2022-12-19T16:07:00.511Z,89.67
2022-12-19T16:09:29.876Z,83.47
2022-12-19T16:11:58.729Z,79.80
2022-12-19T16:14:27.338Z,88.07
2022-12-19T16:16:56.749Z,84.40
2022-12-19T16:19:26.860Z,72.87
2022-12-19T16:21:56.058Z,73.00
2022-12-19T16:24:24.629Z,79.60
2022-12-19T16:26:56.291Z,92.37
2022-12-19T16:29:27.342Z,80.50
2022-12-19T16:31:55.828Z,79.97
2022-12-19T16:34:26.798Z,78.03
2022-12-19T16:36:54.858Z,90.03
2022-12-19T16:39:22.881Z,84.00
2022-12-19T16:41:51.317Z,99.30
2022-12-19T16:44:22.779Z,81.60
2022-12-19T16:46:51.768Z,86.30
2022-12-19T16:49:22.751Z,97.80
2022-12-19T16:51:51.479Z,91.00
2022-12-19T16:54:21.038Z,91.50
2022-12-19T16:56:50.684Z,93.20
2022-12-19T16:59:22.477Z,85.53
2022-12-19T17:01:51.005Z,92.30
2022-12-19T17:04:21.602Z,94.37
2022-12-19T17:06:49.769Z,91.37
2022-12-19T17:09:19.072Z,93.53
2022-12-19T17:11:49.405Z,99.93
2022-12-19T17:14:21.022Z,82.30
2022-12-19T17:16:53.431Z,93.83
2022-12-19T17:19:25.219Z,89.23
2022-12-19T17:21:53.946Z,70.03
2022-12-19T17:24:21.992Z,100.67
2022-12-19T17:26:49.968Z,87.90
2022-12-19T17:29:18.760Z,76.37
2022-12-19T17:31:46.818Z,75.33
2022-12-19T17:34:22.297Z,79.33
2022-12-19T17:36:50.428Z,94.03
2022-12-19T17:39:23.762Z,82.70
2022-12-19T17:41:52.163Z,87.63
2022-12-19T17:44:20.691Z,83.17
2022-12-19T17:46:49.163Z,81.17
2022-12-19T17:49:22.610Z,81.37
2022-12-19T17:51:52.721Z,86.80
2022-12-19T17:54:21.104Z,88.37
2022-12-19T17:56:49.158Z,85.27
2022-12-19T17:59:17.457Z,78.20
2022-12-19T18:01:47.530Z,82.57
2022-12-19T18:04:19.553Z,89.60
2022-12-19T18:06:49.125Z,92.73
2022-12-19T18:09:20.019Z,79.37
2022-12-19T18:11:48.921Z,89.73
2022-12-19T18:14:17.359Z,83.73
2022-12-19T18:16:46.665Z,73.67
2022-12-19T18:19:19.243Z,82.57
2022-12-19T18:21:47.551Z,93.30
2022-12-19T18:24:16.285Z,87.97
2022-12-19T18:26:44.927Z,96.80
2022-12-19T18:29:13.570Z,82.50
2022-12-19T18:31:48.405Z,91.20
2022-12-19T18:34:21.979Z,91.93
2022-12-19T18:36:51.131Z,99.10
2022-12-19T18:39:21.888Z,89.27
2022-12-19T18:41:50.286Z,93.37
2022-12-19T18:44:18.813Z,99.87
2022-12-19T18:46:49.811Z,81.37
2022-12-19T18:49:19.606Z,82.53
2022-12-19T18:51:47.802Z,88.40
2022-12-19T18:54:17.444Z,91.27
2022-12-19T18:56:46.077Z,78.90
2022-12-19T18:59:14.148Z,89.00
2022-12-19T19:01:44.417Z,97.30
2022-12-19T19:04:16.317Z,107.33
2022-12-19T19:06:50.843Z,93.10
2022-12-19T19:09:21.290Z,88.53
2022-12-19T19:11:49.670Z,93.57
2022-12-19T19:14:17.943Z,84.67
2022-12-19T19:16:46.117Z,122.97
2022-12-19T19:19:17.901Z,93.30
2022-12-19T19:21:47.423Z,92.00
2022-12-19T19:24:18.959Z,88.83
2022-12-19T19:26:47.023Z,95.70
2022-12-19T19:29:15.105Z,94.90
2022-12-19T19:31:46.838Z,95.07
2022-12-19T19:34:19.468Z,90.10
2022-12-19T19:36:53.512Z,96.53
2022-12-19T19:39:22.786Z,100.37
2022-12-19T19:41:50.796Z,97.47
2022-12-19T19:44:18.908Z,90.73
2022-12-19T19:46:47.079Z,99.43
2022-12-19T19:49:15.480Z,95.37
2022-12-19T19:51:43.506Z,85.90
2022-12-19T19:54:12.900Z,84.57
2022-12-19T19:56:40.913Z,98.77
2022-12-19T19:59:08.997Z,83.70
2022-12-19T20:01:37.151Z,86.87
2022-12-19T20:04:05.938Z,80.80
2022-12-19T20:06:34.053Z,86.47
2022-12-19T20:09:02.131Z,84.87
2022-12-19T20:11:31.599Z,82.93
2022-12-19T20:13:59.586Z,88.10
2022-12-19T20:16:28.066Z,85.27
2022-12-19T20:18:56.145Z,111.10
2022-12-19T20:21:24.707Z,78.37
2022-12-19T20:23:53.029Z,104.77
2022-12-19T20:26:20.991Z,85.90
2022-12-19T20:28:52.210Z,83.97
2022-12-19T20:31:21.292Z,72.20
2022-12-19T20:33:50.438Z,80.53
2022-12-19T20:36:18.430Z,97.00
2022-12-19T20:38:46.943Z,84.73
2022-12-19T20:41:15.488Z,89.20
2022-12-19T20:43:43.927Z,85.80
2022-12-19T20:46:15.510Z,99.40
2022-12-19T20:48:44.843Z,87.50
2022-12-19T20:51:14.019Z,90.43
2022-12-19T20:53:43.244Z,88.67
2022-12-19T20:56:14.525Z,79.33
2022-12-19T20:58:42.612Z,85.73
2022-12-19T21:01:14.446Z,79.50
2022-12-19T21:03:42.943Z,82.27
2022-12-19T21:06:13.525Z,85.93
2022-12-19T21:08:42.005Z,98.03
2022-12-19T21:11:11.698Z,84.00
2022-12-19T21:13:41.014Z,86.57
2022-12-19T21:16:10.713Z,88.43
2022-12-19T21:18:42.538Z,99.17
2022-12-19T21:21:14.060Z,98.73
2022-12-19T21:23:42.533Z,99.20
2022-12-19T21:26:10.599Z,85.20
2022-12-19T21:28:38.682Z,98.57
2022-12-19T21:31:08.506Z,89.93
2022-12-19T21:33:36.604Z,95.33
2022-12-19T21:36:11.135Z,88.63
2022-12-19T21:38:40.039Z,89.73
2022-12-19T21:41:09.108Z,95.30
2022-12-19T21:43:37.984Z,95.87
2022-12-19T21:46:08.643Z,96.27
2022-12-19T21:48:38.306Z,88.90
2022-12-19T21:51:06.597Z,90.30
2022-12-19T21:53:37.018Z,101.63
2022-12-19T21:56:11.636Z,92.50
2022-12-19T21:58:39.547Z,103.77
2022-12-19T22:01:09.465Z,104.03
2022-12-19T22:03:38.146Z,87.03
2022-12-19T22:06:08.669Z,89.00
2022-12-19T22:08:38.028Z,97.97
2022-12-19T22:11:10.896Z,87.00
2022-12-19T22:13:38.930Z,100.03
2022-12-19T22:16:07.657Z,95.67
2022-12-19T22:18:36.066Z,90.63
2022-12-19T22:21:05.478Z,100.03
2022-12-19T22:23:34.123Z,109.10
2022-12-19T22:26:05.496Z,107.83
2022-12-19T22:28:34.507Z,99.43
2022-12-19T22:31:02.633Z,101.93
2022-12-19T22:33:30.953Z,101.00
2022-12-19T22:35:58.865Z,92.33
2022-12-19T22:38:26.817Z,94.47
2022-12-19T22:40:54.728Z,88.80
2022-12-19T22:43:24.037Z,101.97
2022-12-19T22:45:52.003Z,82.53
2022-12-19T22:48:19.977Z,95.23
2022-12-19T22:50:47.947Z,93.63
2022-12-19T22:53:16.568Z,101.40
2022-12-19T22:55:44.541Z,93.00
2022-12-19T22:58:12.585Z,97.70
2022-12-19T23:00:42.961Z,98.90
2022-12-19T23:03:10.999Z,107.77
2022-12-19T23:05:39.117Z,98.53
2022-12-19T23:08:07.482Z,103.23
2022-12-19T23:10:35.669Z,89.67
2022-12-19T23:13:03.688Z,90.40
2022-12-19T23:15:31.811Z,97.47
2022-12-19T23:18:01.078Z,98.80
2022-12-19T23:20:29.020Z,97.20
2022-12-19T23:22:56.917Z,96.70
2022-12-19T23:25:24.869Z,86.63
2022-12-19T23:27:52.948Z,98.80
2022-12-19T23:30:20.986Z,79.43
2022-12-19T23:32:51.056Z,96.87
2022-12-19T23:35:20.517Z,101.40
2022-12-19T23:37:48.648Z,96.13
2022-12-19T23:40:17.359Z,89.00
2022-12-19T23:42:45.443Z,95.73
2022-12-19T23:45:13.558Z,103.43
2022-12-19T23:47:41.639Z,97.87
2022-12-19T23:50:10.451Z,102.60
2022-12-19T23:52:39.884Z,96.23
2022-12-19T23:55:09.543Z,85.47
2022-12-19T23:57:37.421Z,88.27
